createdAt,value
2018-06-21T00:00:36.383Z,23.38
2018-06-21T00:01:41.901Z,12.68
2018-06-21T00:02:46.971Z,57.35
2018-06-21T00:03:52.570Z,94.72
2018-06-21T00:04:58.280Z,234.80
2018-06-21T00:06:02.189Z,43.33
2018-06-21T00:07:06.187Z,23.32
2018-06-21T00:08:11.139Z,41.83
2018-06-21T00:09:16.108Z,23.95
2018-06-21T00:10:20.184Z,21.90
2018-06-21T00:11:23.965Z,16.93
2018-06-21T00:12:27.926Z,13.65
2018-06-21T00:13:32.563Z,18.50
2018-06-21T00:14:36.290Z,15.90
2018-06-21T00:15:41.472Z,11.60
2018-06-21T00:16:47.798Z,10.98
2018-06-21T00:17:51.763Z,81.47
2018-06-21T00:18:55.637Z,44.35
2018-06-21T00:19:59.321Z,15.03
2018-06-21T00:21:05.758Z,18.07
2018-06-21T00:22:09.433Z,23.22
2018-06-21T00:24:15.596Z,15.50
2018-06-21T00:25:19.994Z,10.70
2018-06-21T00:26:24.099Z,10.03
2018-06-21T00:27:27.925Z,13.30
2018-06-21T00:28:32.857Z,8.35
2018-06-21T00:29:36.644Z,52.90
2018-06-21T00:30:41.537Z,30.35
2018-06-21T00:31:49.262Z,29.87
2018-06-21T00:32:53.057Z,21.65
2018-06-21T00:33:57.562Z,17.05
2018-06-21T00:35:03.053Z,12.73
2018-06-21T00:36:06.754Z,12.18
2018-06-21T00:37:10.448Z,10.48
2018-06-21T00:38:14.718Z,19.30
2018-06-21T00:39:18.594Z,11.20
2018-06-21T00:40:23.220Z,11.63
2018-06-21T00:41:27.698Z,13.78
2018-06-21T00:42:31.952Z,7.78
2018-06-21T00:43:36.535Z,11.35
2018-06-21T00:44:40.208Z,10.43
2018-06-21T00:45:46.140Z,11.85
2018-06-21T00:46:50.080Z,32.25
2018-06-21T00:47:55.273Z,24.52
2018-06-21T00:48:59.553Z,20.60
2018-06-21T00:50:03.214Z,12.05
2018-06-21T00:51:06.916Z,8.83
2018-06-21T00:52:11.663Z,14.53
2018-06-21T00:53:15.687Z,19.60
2018-06-21T00:54:20.439Z,13.15
2018-06-21T00:55:29.666Z,18.10
2018-06-21T00:56:34.007Z,14.50
2018-06-21T00:57:38.009Z,15.30
2018-06-21T00:58:41.908Z,18.10
2018-06-21T00:59:46.629Z,9.25
2018-06-21T01:00:51.235Z,13.58
2018-06-21T01:01:54.974Z,13.15
2018-06-21T01:02:58.685Z,19.57
2018-06-21T01:04:02.385Z,11.55
2018-06-21T01:05:06.744Z,20.00
2018-06-21T01:06:11.246Z,21.05
2018-06-21T01:07:14.929Z,19.70
2018-06-21T01:08:18.602Z,18.60
2018-06-21T01:09:22.870Z,15.23
2018-06-21T01:10:26.851Z,20.55
2018-06-21T01:11:30.754Z,18.55
2018-06-21T01:12:34.692Z,14.98
2018-06-21T01:13:38.781Z,24.20
2018-06-21T01:14:42.606Z,12.82
2018-06-21T01:15:46.341Z,17.27
2018-06-21T01:16:50.036Z,35.20
2018-06-21T01:17:54.511Z,20.53
2018-06-21T01:18:58.211Z,17.02
2018-06-21T01:20:02.843Z,14.58
2018-06-21T01:21:06.547Z,19.90
2018-06-21T01:22:10.505Z,9.88
2018-06-21T01:23:14.194Z,15.68
2018-06-21T01:24:18.035Z,15.10
2018-06-21T01:25:21.835Z,19.92
2018-06-21T01:26:27.250Z,23.70
2018-06-21T01:27:30.917Z,18.17
2018-06-21T01:28:34.735Z,15.15
2018-06-21T01:29:39.348Z,17.20
2018-06-21T01:30:43.014Z,13.53
2018-06-21T01:31:46.773Z,18.70
2018-06-21T01:32:50.401Z,15.55
2018-06-21T01:33:55.327Z,14.20
2018-06-21T01:34:58.991Z,12.37
2018-06-21T01:36:03.284Z,19.77
2018-06-21T01:37:06.918Z,14.05
2018-06-21T01:38:10.997Z,13.08
2018-06-21T01:39:15.579Z,20.12
2018-06-21T01:40:20.864Z,17.98
2018-06-21T01:41:24.536Z,14.03
2018-06-21T01:42:28.685Z,15.70
2018-06-21T01:43:32.659Z,21.20
2018-06-21T01:44:39.458Z,15.75
2018-06-21T01:45:43.130Z,16.25
2018-06-21T01:46:47.063Z,22.67
2018-06-21T01:47:50.728Z,28.00
2018-06-21T01:48:55.195Z,14.03
2018-06-21T01:49:58.844Z,23.02
2018-06-21T01:51:02.552Z,18.93
2018-06-21T01:52:06.945Z,19.85
2018-06-21T01:53:10.691Z,31.33
2018-06-21T01:54:14.364Z,21.75
2018-06-21T01:55:18.577Z,13.15
2018-06-21T01:56:22.220Z,20.50
2018-06-21T01:57:25.913Z,18.27
2018-06-21T01:58:29.781Z,21.90
2018-06-21T01:59:33.434Z,15.55
2018-06-21T02:00:37.572Z,18.25
2018-06-21T02:01:41.385Z,15.35
2018-06-21T02:02:45.943Z,17.05
2018-06-21T02:03:50.211Z,20.15
2018-06-21T02:04:53.899Z,16.48
2018-06-21T02:05:57.597Z,12.60
2018-06-21T02:07:01.266Z,19.48
2018-06-21T02:08:06.274Z,19.47
2018-06-21T02:09:10.291Z,18.30
2018-06-21T02:10:14.811Z,21.48
2018-06-21T02:11:19.698Z,27.55
2018-06-21T02:12:24.066Z,21.27
2018-06-21T02:13:27.933Z,23.77
2018-06-21T02:14:32.364Z,18.87
2018-06-21T02:15:36.018Z,17.40
2018-06-21T02:16:41.385Z,18.27
2018-06-21T02:17:46.028Z,81.95
2018-06-21T02:18:52.101Z,20.17
2018-06-21T02:19:55.753Z,17.05
2018-06-21T02:20:59.419Z,20.33
2018-06-21T02:22:03.530Z,53.17
2018-06-21T02:23:07.198Z,88.40
2018-06-21T02:24:10.833Z,19.17
2018-06-21T02:25:14.498Z,21.65
2018-06-21T02:26:18.162Z,18.92
2018-06-21T02:27:21.845Z,22.05
2018-06-21T02:28:25.516Z,20.77
2018-06-21T02:29:30.799Z,20.92
2018-06-21T02:30:35.114Z,26.52
2018-06-21T02:31:39.801Z,20.10
2018-06-21T02:32:44.037Z,22.93
2018-06-21T02:33:48.125Z,21.10
2018-06-21T02:34:53.640Z,15.20
2018-06-21T02:35:57.307Z,22.37
2018-06-21T02:37:01.891Z,23.02
2018-06-21T02:38:05.540Z,16.85
2018-06-21T02:39:09.893Z,42.62
2018-06-21T02:40:13.598Z,26.20
2018-06-21T02:41:17.247Z,19.73
2018-06-21T02:42:20.909Z,26.05
2018-06-21T02:43:24.553Z,20.82
2018-06-21T02:44:28.750Z,18.05
2018-06-21T02:45:32.960Z,19.98
2018-06-21T02:46:36.864Z,21.00
2018-06-21T02:47:40.586Z,23.92
2018-06-21T02:48:45.263Z,17.75
2018-06-21T02:49:49.056Z,27.35
2018-06-21T02:50:52.702Z,17.82
2018-06-21T02:51:58.624Z,17.77
2018-06-21T02:53:02.563Z,18.52
2018-06-21T02:54:06.309Z,15.78
2018-06-21T02:55:11.472Z,25.00
2018-06-21T02:56:15.477Z,26.97
2018-06-21T02:57:19.327Z,50.75
2018-06-21T02:58:23.585Z,116.25
2018-06-21T02:59:27.597Z,26.68
2018-06-21T03:00:31.277Z,29.75
2018-06-21T03:01:34.985Z,73.75
2018-06-21T03:02:38.676Z,50.95
2018-06-21T03:03:42.315Z,25.23
2018-06-21T03:04:45.993Z,23.95
2018-06-21T03:05:49.669Z,23.98
2018-06-21T03:06:54.166Z,21.60
2018-06-21T03:07:58.875Z,28.00
2018-06-21T03:09:02.610Z,17.67
2018-06-21T03:10:07.443Z,19.00
2018-06-21T03:11:11.662Z,19.33
2018-06-21T03:12:20.493Z,17.23
2018-06-21T03:13:25.246Z,20.37
2018-06-21T03:14:28.919Z,19.20
2018-06-21T03:15:32.569Z,21.05
2018-06-21T03:16:36.258Z,16.50
2018-06-21T03:17:40.318Z,16.20
2018-06-21T03:18:44.549Z,25.25
2018-06-21T03:19:48.226Z,21.68
2018-06-21T03:20:51.886Z,16.70
2018-06-21T03:21:55.564Z,20.17
2018-06-21T03:22:59.249Z,16.95
2018-06-21T03:24:03.066Z,17.37
2018-06-21T03:25:06.721Z,19.98
2018-06-21T03:26:11.256Z,22.62
2018-06-21T03:27:14.916Z,22.55
2018-06-21T03:28:18.604Z,17.00
2018-06-21T03:29:22.350Z,15.85
2018-06-21T03:30:26.012Z,19.80
2018-06-21T03:31:32.401Z,17.15
2018-06-21T03:32:36.909Z,15.97
2018-06-21T03:33:40.832Z,16.57
2018-06-21T03:34:44.486Z,22.63
2018-06-21T03:35:48.407Z,19.57
2018-06-21T03:36:52.045Z,17.65
2018-06-21T03:37:55.697Z,15.65
2018-06-21T03:39:01.205Z,21.10
2018-06-21T03:40:05.235Z,15.55
2018-06-21T03:41:08.905Z,22.67
2018-06-21T03:42:13.339Z,16.50
2018-06-21T03:43:17.089Z,17.57
2018-06-21T03:44:20.756Z,22.13
2018-06-21T03:45:24.450Z,19.73
2018-06-21T03:46:30.088Z,17.02
2018-06-21T03:47:33.786Z,18.20
2018-06-21T03:48:38.254Z,15.30
2018-06-21T03:49:42.001Z,20.70
2018-06-21T03:50:45.819Z,24.47
2018-06-21T03:51:51.156Z,19.10
2018-06-21T03:52:54.853Z,16.17
2018-06-21T03:53:59.496Z,18.65
2018-06-21T03:55:03.846Z,20.43
2018-06-21T03:56:07.722Z,15.88
2018-06-21T03:57:11.413Z,16.32
2018-06-21T03:58:15.432Z,20.65
2018-06-21T03:59:19.112Z,21.07
2018-06-21T04:00:22.847Z,18.82
2018-06-21T04:01:27.338Z,22.50
2018-06-21T04:02:31.229Z,24.18
2018-06-21T04:03:34.912Z,21.57
2018-06-21T04:04:39.366Z,16.20
2018-06-21T04:05:43.106Z,31.40
2018-06-21T04:06:46.769Z,21.93
2018-06-21T04:07:50.701Z,15.28
2018-06-21T04:08:55.362Z,22.17
2018-06-21T04:09:59.159Z,15.70
2018-06-21T04:11:02.852Z,26.57
2018-06-21T04:12:07.229Z,16.70
2018-06-21T04:13:11.260Z,17.25
2018-06-21T04:14:14.919Z,16.90
2018-06-21T04:15:18.667Z,20.40
2018-06-21T04:16:22.957Z,18.82
2018-06-21T04:17:27.111Z,21.48
2018-06-21T04:18:35.507Z,19.45
2018-06-21T04:19:39.164Z,17.82
2018-06-21T04:20:42.814Z,17.50
2018-06-21T04:21:46.470Z,15.30
2018-06-21T04:22:50.215Z,13.00
2018-06-21T04:23:54.161Z,19.98
2018-06-21T04:24:58.709Z,24.98
2018-06-21T04:26:03.515Z,17.40
2018-06-21T04:27:07.250Z,21.60
2018-06-21T04:28:11.557Z,18.92
2018-06-21T04:29:15.591Z,28.02
2018-06-21T04:30:19.249Z,26.52
2018-06-21T04:31:24.314Z,15.15
2018-06-21T04:32:28.205Z,22.00
2018-06-21T04:33:31.864Z,22.32
2018-06-21T04:34:35.577Z,11.80
2018-06-21T04:35:39.724Z,17.90
2018-06-21T04:36:43.376Z,18.73
2018-06-21T04:37:47.097Z,17.70
2018-06-21T04:38:50.907Z,15.05
2018-06-21T04:39:54.952Z,12.13
2018-06-21T04:40:58.648Z,12.90
2018-06-21T04:42:03.273Z,16.12
2018-06-21T04:43:06.942Z,10.70
2018-06-21T04:44:11.285Z,13.28
2018-06-21T04:45:15.093Z,15.48
2018-06-21T04:46:19.041Z,11.80
2018-06-21T04:47:23.618Z,14.73
2018-06-21T04:48:27.981Z,11.05
2018-06-21T04:49:32.854Z,15.05
2018-06-21T04:50:37.358Z,19.57
2018-06-21T04:51:41.050Z,14.78
2018-06-21T04:52:45.681Z,15.93
2018-06-21T04:53:49.324Z,16.20
2018-06-21T04:54:53.090Z,15.70
2018-06-21T04:55:59.465Z,12.98
2018-06-21T04:57:03.206Z,15.55
2018-06-21T04:58:07.726Z,10.93
2018-06-21T04:59:11.403Z,11.40
2018-06-21T05:00:16.909Z,14.33
2018-06-21T05:01:21.607Z,16.77
2018-06-21T05:04:01.618Z,14.18
2018-06-21T05:05:05.614Z,13.55
2018-06-21T05:06:10.483Z,15.90
2018-06-21T05:07:14.284Z,18.25
2018-06-21T05:08:19.330Z,16.35
2018-06-21T05:09:23.037Z,18.67
2018-06-21T05:10:26.701Z,16.45
2018-06-21T05:11:31.134Z,17.73
2018-06-21T05:12:34.807Z,30.68
2018-06-21T05:13:39.749Z,33.98
2018-06-21T05:14:43.444Z,40.38
2018-06-21T05:15:47.850Z,35.80
2018-06-21T05:16:51.555Z,35.13
2018-06-21T05:17:56.538Z,31.15
2018-06-21T05:19:00.243Z,27.87
2018-06-21T05:20:04.046Z,33.50
2018-06-21T05:21:07.738Z,31.37
2018-06-21T05:22:11.417Z,35.10
2018-06-21T05:23:15.451Z,28.30
2018-06-21T05:24:19.338Z,33.73
2018-06-21T05:25:23.025Z,35.17
2018-06-21T05:26:28.261Z,39.80
2018-06-21T05:27:34.878Z,35.60
2018-06-21T05:28:39.298Z,37.27
2018-06-21T05:29:44.823Z,39.40
2018-06-21T05:30:48.804Z,39.53
2018-06-21T05:31:53.315Z,35.10
2018-06-21T05:32:57.889Z,42.48
2018-06-21T05:34:01.550Z,39.23
2018-06-21T05:35:05.735Z,41.88
2018-06-21T05:36:09.399Z,44.15
2018-06-21T05:37:16.198Z,40.97
2018-06-21T05:38:20.754Z,42.65
2018-06-21T05:39:24.454Z,42.55
2018-06-21T05:40:30.521Z,39.55
2018-06-21T05:41:34.936Z,44.42
2018-06-21T05:42:38.899Z,40.28
2018-06-21T05:43:43.043Z,35.78
2018-06-21T05:44:46.976Z,39.40
2018-06-21T05:45:50.724Z,35.60
2018-06-21T05:46:54.913Z,34.98
2018-06-21T05:48:00.809Z,38.00
2018-06-21T05:49:04.466Z,31.73
2018-06-21T05:50:08.129Z,33.67
2018-06-21T05:51:11.846Z,32.53
2018-06-21T05:52:16.650Z,31.62
2018-06-21T05:53:20.933Z,32.88
2018-06-21T05:54:24.605Z,33.92
2018-06-21T05:55:29.085Z,29.63
2018-06-21T05:56:32.951Z,33.08
2018-06-21T05:57:37.252Z,30.00
2018-06-21T05:58:40.917Z,30.00
2018-06-21T05:59:44.586Z,26.45
2018-06-21T06:00:50.948Z,28.12
2018-06-21T06:01:54.673Z,31.23
2018-06-21T06:03:00.016Z,24.20
2018-06-21T06:04:03.904Z,25.55
2018-06-21T06:05:10.751Z,26.00
2018-06-21T06:06:15.107Z,32.45
2018-06-21T06:07:20.369Z,26.63
2018-06-21T06:08:24.160Z,24.60
2018-06-21T06:09:28.152Z,21.27
2018-06-21T06:10:32.831Z,29.67
2018-06-21T06:11:37.361Z,29.50
2018-06-21T06:12:41.478Z,40.20
2018-06-21T06:13:45.131Z,27.00
2018-06-21T06:14:48.815Z,31.93
2018-06-21T06:15:52.505Z,33.92
2018-06-21T06:16:56.175Z,28.17
2018-06-21T06:18:01.799Z,32.05
2018-06-21T06:19:06.279Z,31.85
2018-06-21T06:20:10.250Z,39.23
2018-06-21T06:21:15.463Z,33.88
2018-06-21T06:22:19.127Z,40.08
2018-06-21T06:23:24.910Z,43.20
2018-06-21T06:24:29.153Z,42.33
2018-06-21T06:25:33.139Z,50.83
2018-06-21T06:26:37.667Z,51.95
2018-06-21T06:27:41.466Z,47.38
2018-06-21T06:28:45.409Z,54.15
2018-06-21T06:29:49.031Z,59.73
2018-06-21T06:30:52.861Z,56.08
2018-06-21T06:31:56.850Z,51.55
2018-06-21T06:33:01.086Z,53.63
2018-06-21T06:34:04.811Z,58.40
2018-06-21T06:35:08.575Z,49.20
2018-06-21T06:36:12.259Z,48.80
2018-06-21T06:37:15.918Z,47.50
2018-06-21T06:38:20.607Z,47.30
2018-06-21T06:39:24.857Z,52.45
2018-06-21T06:40:28.699Z,48.80
2018-06-21T06:41:33.747Z,52.65
2018-06-21T06:42:37.713Z,41.40
2018-06-21T06:43:41.362Z,45.60
2018-06-21T06:44:45.098Z,52.25
2018-06-21T06:45:50.352Z,51.05
2018-06-21T06:46:54.032Z,44.73
2018-06-21T06:47:58.474Z,40.98
2018-06-21T06:49:04.064Z,47.80
2018-06-21T06:50:09.390Z,55.15
2018-06-21T06:51:15.617Z,53.23
2018-06-21T06:52:19.273Z,50.28
2018-06-21T06:53:23.782Z,47.60
2018-06-21T06:54:28.375Z,44.70
2018-06-21T06:55:32.335Z,48.25
2018-06-21T06:56:36.854Z,44.40
2018-06-21T06:57:40.562Z,50.10
2018-06-21T06:58:47.057Z,42.62
2018-06-21T06:59:50.701Z,46.77
2018-06-21T07:00:54.566Z,41.13
2018-06-21T07:01:58.249Z,40.28
2018-06-21T07:03:02.159Z,45.00
2018-06-21T07:04:05.933Z,38.83
2018-06-21T07:05:11.072Z,42.05
2018-06-21T07:06:14.765Z,40.70
2018-06-21T07:07:19.533Z,40.38
2018-06-21T07:08:23.675Z,34.67
2018-06-21T07:09:27.691Z,38.20
2018-06-21T07:10:31.457Z,40.23
2018-06-21T07:11:36.430Z,35.92
2018-06-21T07:12:40.645Z,33.90
2018-06-21T07:13:44.979Z,35.85
2018-06-21T07:14:48.634Z,31.90
2018-06-21T07:15:52.479Z,33.15
2018-06-21T07:16:57.353Z,31.45
2018-06-21T07:18:01.016Z,30.62
2018-06-21T07:19:05.510Z,33.67
2018-06-21T07:20:09.489Z,34.33
2018-06-21T07:21:13.543Z,31.48
2018-06-21T07:22:17.480Z,39.55
2018-06-21T07:23:23.341Z,37.83
2018-06-21T07:24:28.151Z,44.88
2018-06-21T07:25:33.771Z,34.53
2018-06-21T07:26:38.533Z,37.83
2018-06-21T07:27:42.210Z,37.63
2018-06-21T07:28:47.353Z,32.17
2018-06-21T07:29:51.043Z,33.13
2018-06-21T07:30:54.801Z,34.70
2018-06-21T07:31:58.753Z,30.52
2018-06-21T07:33:03.422Z,34.08
2018-06-21T07:34:08.253Z,36.15
2018-06-21T07:35:12.157Z,28.23
2018-06-21T07:36:15.831Z,30.50
2018-06-21T07:37:20.749Z,32.05
2018-06-21T07:38:25.474Z,40.12
2018-06-21T07:39:29.459Z,30.70
2018-06-21T07:40:34.626Z,33.85
2018-06-21T07:41:38.530Z,25.52
2018-06-21T07:42:42.221Z,30.30
2018-06-21T07:43:46.103Z,29.27
2018-06-21T07:44:51.286Z,26.75
2018-06-21T07:45:55.824Z,29.50
2018-06-21T07:47:03.734Z,29.35
2018-06-21T07:48:07.690Z,31.77
2018-06-21T07:49:13.298Z,30.10
2018-06-21T07:50:16.949Z,34.00
2018-06-21T07:51:22.937Z,24.17
2018-06-21T07:52:28.256Z,24.10
2018-06-21T07:53:34.929Z,25.48
2018-06-21T07:54:39.542Z,26.37
2018-06-21T07:55:43.950Z,21.12
2018-06-21T07:56:48.629Z,25.12
2018-06-21T07:57:52.275Z,25.50
2018-06-21T07:59:00.198Z,25.60
2018-06-21T08:00:04.257Z,16.97
2018-06-21T08:01:08.821Z,23.00
2018-06-21T08:02:23.386Z,18.05
2018-06-21T08:03:31.010Z,20.70
2018-06-21T08:04:35.835Z,26.20
2018-06-21T08:05:39.559Z,20.72
2018-06-21T08:06:43.248Z,19.10
2018-06-21T08:07:47.746Z,21.10
2018-06-21T08:08:52.099Z,21.55
2018-06-21T08:09:55.854Z,20.12
2018-06-21T08:11:00.594Z,23.52
2018-06-21T08:12:04.932Z,19.00
2018-06-21T08:13:09.442Z,22.60
2018-06-21T08:14:13.140Z,17.48
2018-06-21T08:15:16.853Z,18.30
2018-06-21T08:16:22.445Z,22.85
2018-06-21T08:17:26.272Z,16.70
2018-06-21T08:18:29.957Z,19.55
2018-06-21T08:19:33.653Z,24.60
2018-06-21T08:20:38.335Z,24.90
2018-06-21T08:21:42.455Z,36.90
2018-06-21T08:22:46.153Z,30.10
2018-06-21T08:23:51.288Z,20.32
2018-06-21T08:24:55.611Z,29.90
2018-06-21T08:25:59.441Z,28.20
2018-06-21T08:27:03.140Z,49.50
2018-06-21T08:28:07.086Z,40.60
2018-06-21T08:29:11.767Z,50.03
2018-06-21T08:30:16.229Z,53.08
2018-06-21T08:31:19.915Z,43.90
2018-06-21T08:32:23.605Z,37.85
2018-06-21T08:33:27.310Z,40.05
2018-06-21T08:34:30.977Z,34.80
2018-06-21T08:35:34.698Z,41.65
2018-06-21T08:36:38.394Z,38.13
2018-06-21T08:37:43.609Z,35.15
2018-06-21T08:38:47.792Z,26.65
2018-06-21T08:39:51.703Z,29.63
2018-06-21T08:40:55.711Z,35.28
2018-06-21T08:41:59.394Z,21.35
2018-06-21T08:43:04.532Z,18.70
2018-06-21T08:44:08.433Z,20.50
2018-06-21T08:45:12.295Z,15.05
2018-06-21T08:46:16.590Z,16.27
2018-06-21T08:47:20.491Z,14.07
2018-06-21T08:48:24.445Z,16.03
2018-06-21T08:49:31.151Z,12.90
2018-06-21T08:50:35.058Z,16.60
2018-06-21T08:51:38.895Z,14.97
2018-06-21T08:52:42.597Z,13.75
2018-06-21T08:53:46.490Z,15.72
2018-06-21T08:54:51.842Z,15.45
2018-06-21T08:55:55.731Z,17.67
2018-06-21T08:57:00.076Z,9.35
2018-06-21T08:58:05.154Z,5.28
2018-06-21T08:59:11.050Z,15.05
2018-06-21T09:00:17.552Z,10.82
2018-06-21T09:01:21.579Z,15.65
2018-06-21T09:02:26.124Z,6.22
2018-06-21T09:03:29.864Z,12.73
2018-06-21T09:04:34.729Z,13.18
2018-06-21T09:05:38.952Z,11.35
2018-06-21T09:06:44.514Z,19.35
2018-06-21T09:07:48.502Z,11.48
2018-06-21T09:08:52.947Z,8.00
2018-06-21T09:09:58.958Z,4.53
2018-06-21T09:11:03.142Z,21.07
2018-06-21T09:12:06.827Z,13.58
2018-06-21T09:13:11.077Z,11.35
2018-06-21T09:14:17.671Z,12.68
2018-06-21T09:15:21.903Z,6.40
2018-06-21T09:16:26.769Z,14.35
2018-06-21T09:17:30.522Z,29.42
2018-06-21T09:18:34.342Z,22.90
2018-06-21T09:19:38.030Z,24.83
2018-06-21T09:20:41.669Z,19.50
2018-06-21T09:21:45.915Z,22.55
2018-06-21T09:22:49.652Z,28.93
2018-06-21T09:23:53.476Z,35.63
2018-06-21T09:24:57.146Z,34.43
2018-06-21T09:26:02.270Z,40.60
2018-06-21T09:27:06.268Z,31.35
2018-06-21T09:28:10.103Z,15.90
2018-06-21T09:29:13.824Z,27.10
2018-06-21T09:30:17.487Z,16.50
2018-06-21T09:31:21.463Z,15.45
2018-06-21T09:32:25.131Z,16.27
2018-06-21T09:33:29.172Z,12.93
2018-06-21T09:34:33.151Z,18.67
2018-06-21T09:35:37.048Z,12.95
2018-06-21T09:36:42.486Z,9.48
2018-06-21T09:37:51.387Z,9.15
2018-06-21T09:39:00.797Z,14.85
2018-06-21T09:40:09.696Z,4.72
2018-06-21T09:41:18.730Z,8.13
2018-06-21T09:42:28.354Z,9.43
2018-06-21T09:43:50.290Z,10.78
2018-06-21T09:44:46.637Z,10.38
2018-06-21T09:45:55.487Z,6.62
2018-06-21T09:47:04.701Z,6.33
2018-06-21T09:48:14.226Z,9.40
2018-06-21T09:49:18.991Z,3.90
2018-06-21T09:50:23.828Z,8.28
2018-06-21T09:51:28.474Z,9.33
2018-06-21T09:52:33.064Z,8.65
2018-06-21T09:53:37.410Z,12.45
2018-06-21T09:54:41.368Z,15.72
2018-06-21T09:55:45.593Z,12.85
2018-06-21T09:56:49.594Z,17.37
2018-06-21T09:57:54.518Z,7.80
2018-06-21T09:59:07.583Z,12.30
2018-06-21T10:00:15.727Z,8.95
2018-06-21T10:01:19.938Z,4.75
2018-06-21T10:02:23.597Z,6.45
2018-06-21T10:03:28.156Z,21.68
2018-06-21T10:04:32.714Z,8.98
2018-06-21T10:05:37.130Z,10.13
2018-06-21T10:06:41.545Z,6.60
2018-06-21T10:07:45.237Z,13.70
2018-06-21T10:08:48.931Z,16.60
2018-06-21T10:09:53.590Z,23.03
2018-06-21T10:10:57.617Z,18.20
2018-06-21T10:12:01.494Z,21.65
2018-06-21T10:13:05.320Z,12.00
2018-06-21T10:14:09.991Z,13.10
2018-06-21T10:15:14.122Z,10.83
2018-06-21T10:16:17.786Z,10.32
2018-06-21T10:17:21.668Z,19.35
2018-06-21T10:18:25.350Z,8.33
2018-06-21T10:19:29.914Z,10.95
2018-06-21T10:20:35.362Z,12.37
2018-06-21T10:21:39.126Z,7.03
2018-06-21T10:22:43.150Z,10.63
2018-06-21T10:23:47.320Z,13.40
2018-06-21T10:24:52.923Z,12.18
2018-06-21T10:25:57.150Z,10.10
2018-06-21T10:27:01.126Z,8.65
2018-06-21T10:28:04.794Z,9.98
2018-06-21T10:29:08.513Z,10.15
2018-06-21T10:30:12.198Z,17.25
2018-06-21T10:31:17.019Z,7.62
2018-06-21T10:32:20.742Z,8.85
2018-06-21T10:33:25.475Z,15.83
2018-06-21T10:34:29.394Z,32.70
2018-06-21T10:35:34.381Z,19.32
2018-06-21T10:36:38.168Z,23.60
2018-06-21T10:37:44.142Z,19.95
2018-06-21T10:38:48.671Z,25.35
2018-06-21T10:39:52.586Z,23.57
2018-06-21T10:40:57.231Z,25.25
2018-06-21T10:42:00.959Z,22.55
2018-06-21T10:43:04.633Z,25.27
2018-06-21T10:44:08.834Z,25.17
2018-06-21T10:45:13.440Z,28.67
2018-06-21T10:46:17.396Z,26.82
2018-06-21T10:47:22.027Z,18.80
2018-06-21T10:48:26.559Z,28.00
2018-06-21T10:49:35.485Z,22.23
2018-06-21T10:50:41.214Z,37.83
2018-06-21T10:51:45.776Z,17.90
2018-06-21T10:52:57.898Z,22.52
2018-06-21T10:54:01.704Z,23.05
2018-06-21T10:55:05.593Z,14.93
2018-06-21T10:56:09.470Z,22.85
2018-06-21T10:57:15.157Z,23.18
2018-06-21T10:58:19.133Z,27.90
2018-06-21T10:59:23.090Z,12.80
2018-06-21T11:00:26.749Z,17.55
2018-06-21T11:01:31.041Z,12.18
2018-06-21T11:02:36.594Z,7.30
2018-06-21T11:03:41.157Z,22.30
2018-06-21T11:04:44.836Z,11.18
2018-06-21T11:05:48.899Z,13.48
2018-06-21T11:06:53.309Z,17.60
2018-06-21T11:08:00.278Z,15.35
2018-06-21T11:09:04.929Z,9.10
2018-06-21T11:10:08.912Z,12.53
2018-06-21T11:11:13.560Z,7.22
2018-06-21T11:12:17.603Z,10.15
2018-06-21T11:13:21.889Z,14.00
2018-06-21T11:14:26.967Z,14.93
2018-06-21T11:15:33.408Z,16.23
2018-06-21T11:16:38.245Z,13.15
2018-06-21T11:17:42.929Z,10.82
2018-06-21T11:18:47.797Z,8.60
2018-06-21T11:19:51.460Z,11.95
2018-06-21T11:20:55.876Z,13.13
2018-06-21T11:21:59.553Z,9.40
2018-06-21T11:23:03.418Z,9.25
2018-06-21T11:24:09.397Z,8.85
2018-06-21T11:25:13.119Z,17.10
2018-06-21T11:26:17.884Z,15.78
2018-06-21T11:27:22.620Z,9.87
2018-06-21T11:28:26.881Z,15.03
2018-06-21T11:29:30.682Z,7.72
2018-06-21T11:30:34.562Z,12.20
2018-06-21T11:31:40.077Z,7.37
2018-06-21T11:32:43.769Z,9.13
2018-06-21T11:33:49.597Z,11.93
2018-06-21T11:34:53.458Z,10.63
2018-06-21T11:35:58.557Z,7.67
2018-06-21T11:37:06.114Z,14.23
2018-06-21T11:38:11.857Z,10.35
2018-06-21T11:39:16.308Z,8.13
2018-06-21T11:40:20.412Z,6.53
2018-06-21T11:41:25.457Z,13.25
2018-06-21T11:42:29.653Z,9.48
2018-06-21T11:43:33.590Z,9.05
2018-06-21T11:44:37.262Z,8.88
2018-06-21T11:45:40.954Z,12.98
2018-06-21T11:46:44.670Z,9.43
2018-06-21T11:47:48.912Z,13.03
2018-06-21T11:48:53.614Z,21.40
2018-06-21T11:50:00.733Z,17.20
2018-06-21T11:51:04.482Z,12.25
2018-06-21T11:52:09.625Z,10.15
2018-06-21T11:53:14.563Z,16.15
2018-06-21T11:54:18.453Z,17.27
2018-06-21T11:55:25.673Z,14.03
2018-06-21T11:56:29.550Z,13.58
2018-06-21T11:57:33.471Z,14.73
2018-06-21T11:58:38.589Z,16.77
2018-06-21T11:59:43.682Z,8.43
2018-06-21T12:00:48.458Z,9.65
2018-06-21T12:01:55.348Z,4.45
2018-06-21T12:02:59.669Z,7.55
2018-06-21T12:04:04.100Z,16.42
2018-06-21T12:05:10.855Z,16.37
2018-06-21T12:06:14.569Z,10.53
2018-06-21T12:07:18.417Z,10.25
2018-06-21T12:08:24.307Z,13.70
2018-06-21T12:09:29.279Z,7.30
2018-06-21T12:10:33.624Z,7.17
2018-06-21T12:11:37.406Z,16.25
2018-06-21T12:12:41.268Z,6.28
2018-06-21T12:13:47.560Z,11.00
2018-06-21T12:14:51.409Z,6.92
2018-06-21T12:15:55.459Z,6.90
2018-06-21T12:16:59.830Z,14.38
2018-06-21T12:18:05.650Z,10.90
2018-06-21T12:19:09.353Z,13.65
2018-06-21T12:20:13.199Z,15.60
2018-06-21T12:21:17.148Z,51.18
2018-06-21T12:22:20.818Z,15.28
2018-06-21T12:23:25.542Z,15.55
2018-06-21T12:24:29.444Z,33.60
2018-06-21T12:25:33.704Z,26.80
2018-06-21T12:26:38.888Z,15.60
2018-06-21T12:27:42.784Z,13.75
2018-06-21T12:28:48.019Z,13.98
2018-06-21T12:29:53.474Z,35.73
2018-06-21T12:30:57.708Z,22.58
2018-06-21T12:32:03.799Z,24.10
2018-06-21T12:33:09.614Z,24.05
2018-06-21T12:34:17.455Z,11.22
2018-06-21T12:35:26.138Z,20.80
2018-06-21T12:36:31.473Z,27.50
2018-06-21T12:37:37.390Z,29.45
2018-06-21T12:38:45.484Z,18.90
2018-06-21T12:42:31.515Z,12.75
2018-06-21T12:46:55.739Z,15.18
2018-06-21T12:48:09.371Z,10.72
2018-06-21T13:33:20.334Z,15.28
2018-06-21T13:34:26.132Z,6.47
2018-06-21T13:35:30.423Z,10.60
2018-06-21T13:36:35.086Z,14.38
2018-06-21T13:37:38.810Z,16.55
2018-06-21T13:38:42.550Z,16.93
2018-06-21T13:39:46.517Z,13.60
2018-06-21T13:40:51.109Z,9.23
2018-06-21T13:41:55.147Z,12.63
2018-06-21T13:42:58.930Z,15.95
2018-06-21T13:44:02.862Z,8.50
2018-06-21T13:45:07.079Z,31.35
2018-06-21T13:46:11.458Z,33.38
2018-06-21T13:47:15.584Z,19.83
2018-06-21T13:48:19.467Z,12.88
2018-06-21T13:49:23.884Z,22.55
2018-06-21T13:50:27.583Z,29.27
2018-06-21T13:51:31.904Z,43.70
2018-06-21T13:52:37.009Z,43.13
2018-06-21T13:53:41.142Z,28.60
2018-06-21T13:54:44.899Z,22.15
2018-06-21T13:55:50.443Z,18.32
2018-06-21T13:56:54.492Z,29.77
2018-06-21T13:57:58.379Z,28.17
2018-06-21T13:59:03.584Z,13.43
2018-06-21T14:00:08.323Z,14.30
2018-06-21T14:01:12.804Z,15.32
2018-06-21T14:02:18.202Z,14.85
2018-06-21T14:03:25.847Z,7.03
2018-06-21T14:04:29.774Z,17.60
2018-06-21T14:05:33.453Z,9.23
2018-06-21T14:06:37.372Z,15.63
2018-06-21T14:07:42.584Z,13.00
2018-06-21T14:08:47.226Z,25.72
2018-06-21T14:09:52.894Z,17.55
2018-06-21T14:10:57.681Z,16.65
2018-06-21T14:12:13.064Z,16.05
2018-06-21T14:13:17.327Z,23.70
2018-06-21T14:14:22.509Z,16.25
2018-06-21T14:15:29.267Z,10.90
2018-06-21T14:16:34.418Z,15.25
2018-06-21T14:17:39.330Z,13.25
2018-06-21T14:18:44.500Z,8.85
2018-06-21T14:19:48.828Z,14.43
2018-06-21T14:20:58.001Z,15.72
2018-06-21T14:22:01.778Z,11.03
2018-06-21T14:23:06.018Z,13.97
2018-06-21T14:24:11.608Z,16.03
2018-06-21T14:25:16.349Z,14.55
2018-06-21T14:26:21.321Z,7.28
2018-06-21T14:27:25.046Z,20.15
2018-06-21T14:28:30.906Z,21.90
2018-06-21T14:29:34.815Z,25.60
2018-06-21T14:30:38.709Z,33.35
2018-06-21T14:31:42.506Z,37.15
2018-06-21T14:32:47.292Z,21.50
2018-06-21T14:33:52.897Z,27.90
2018-06-21T14:34:57.645Z,34.75
2018-06-21T14:36:04.695Z,25.08
2018-06-21T14:37:12.956Z,27.58
2018-06-21T14:38:16.646Z,38.30
2018-06-21T14:39:21.487Z,32.93
2018-06-21T14:40:25.587Z,35.10
2018-06-21T14:41:30.850Z,35.45
2018-06-21T14:42:34.724Z,39.92
2018-06-21T14:43:39.900Z,32.13
2018-06-21T14:44:44.751Z,17.27
2018-06-21T14:45:50.347Z,16.82